sensor_id;sensor_type;location;lat;lon;timestamp;temperature;humidity
16827;DHT22;8530;49.540;8.576;2023-03-23T00:00:01;15.10;47.60
16827;DHT22;8530;49.540;8.576;2023-03-23T00:02:31;15.10;47.70
16827;DHT22;8530;49.540;8.576;2023-03-23T00:05:01;15.10;47.80
16827;DHT22;8530;49.540;8.576;2023-03-23T00:07:29;15.10;47.90
16827;DHT22;8530;49.540;8.576;2023-03-23T00:09:55;15.00;48.00
16827;DHT22;8530;49.540;8.576;2023-03-23T00:12:23;15.00;48.10
16827;DHT22;8530;49.540;8.576;2023-03-23T00:14:55;15.00;48.30
16827;DHT22;8530;49.540;8.576;2023-03-23T00:17:22;15.00;48.40
16827;DHT22;8530;49.540;8.576;2023-03-23T00:19:50;14.90;48.40
16827;DHT22;8530;49.540;8.576;2023-03-23T00:22:17;14.90;48.60
16827;DHT22;8530;49.540;8.576;2023-03-23T00:24:46;14.90;48.70
16827;DHT22;8530;49.540;8.576;2023-03-23T00:27:13;14.90;48.80
16827;DHT22;8530;49.540;8.576;2023-03-23T00:29:41;14.90;48.90
16827;DHT22;8530;49.540;8.576;2023-03-23T00:32:12;14.90;49.00
16827;DHT22;8530;49.540;8.576;2023-03-23T00:34:40;14.90;49.10
16827;DHT22;8530;49.540;8.576;2023-03-23T00:37:08;14.90;49.20
16827;DHT22;8530;49.540;8.576;2023-03-23T00:39:36;14.90;49.20
16827;DHT22;8530;49.540;8.576;2023-03-23T00:42:04;14.90;49.30
16827;DHT22;8530;49.540;8.576;2023-03-23T00:44:32;14.90;49.30
16827;DHT22;8530;49.540;8.576;2023-03-23T00:47:01;14.90;49.40
16827;DHT22;8530;49.540;8.576;2023-03-23T00:49:29;14.90;49.40
16827;DHT22;8530;49.540;8.576;2023-03-23T00:52:00;14.90;49.40
16827;DHT22;8530;49.540;8.576;2023-03-23T00:54:28;14.90;49.50
16827;DHT22;8530;49.540;8.576;2023-03-23T00:56:55;14.90;49.50
16827;DHT22;8530;49.540;8.576;2023-03-23T00:59:22;14.90;49.50
16827;DHT22;8530;49.540;8.576;2023-03-23T01:01:49;14.90;49.50
16827;DHT22;8530;49.540;8.576;2023-03-23T01:04:16;14.90;49.50
16827;DHT22;8530;49.540;8.576;2023-03-23T01:06:48;14.90;49.60
16827;DHT22;8530;49.540;8.576;2023-03-23T01:09:16;14.90;49.60
16827;DHT22;8530;49.540;8.576;2023-03-23T01:11:45;14.90;49.60
16827;DHT22;8530;49.540;8.576;2023-03-23T01:14:13;14.90;49.60
16827;DHT22;8530;49.540;8.576;2023-03-23T01:16:41;14.90;49.60
16827;DHT22;8530;49.540;8.576;2023-03-23T01:19:08;14.90;49.70
16827;DHT22;8530;49.540;8.576;2023-03-23T01:21:35;14.90;49.70
16827;DHT22;8530;49.540;8.576;2023-03-23T01:24:04;14.80;49.70
16827;DHT22;8530;49.540;8.576;2023-03-23T01:26:31;14.80;49.70
16827;DHT22;8530;49.540;8.576;2023-03-23T01:28:58;14.80;49.70
16827;DHT22;8530;49.540;8.576;2023-03-23T01:31:26;14.80;49.80
16827;DHT22;8530;49.540;8.576;2023-03-23T01:33:54;14.80;49.80
16827;DHT22;8530;49.540;8.576;2023-03-23T01:36:23;14.80;49.80
16827;DHT22;8530;49.540;8.576;2023-03-23T01:38:50;14.90;49.80
16827;DHT22;8530;49.540;8.576;2023-03-23T01:41:19;14.90;49.90
16827;DHT22;8530;49.540;8.576;2023-03-23T01:43:54;14.90;49.80
16827;DHT22;8530;49.540;8.576;2023-03-23T01:46:21;14.90;49.80
16827;DHT22;8530;49.540;8.576;2023-03-23T01:48:49;14.90;49.80
16827;DHT22;8530;49.540;8.576;2023-03-23T01:51:18;14.90;49.80
16827;DHT22;8530;49.540;8.576;2023-03-23T01:53:48;14.90;49.90
16827;DHT22;8530;49.540;8.576;2023-03-23T01:56:22;14.90;49.80
16827;DHT22;8530;49.540;8.576;2023-03-23T01:58:52;14.90;49.80
16827;DHT22;8530;49.540;8.576;2023-03-23T02:01:19;14.90;49.90
16827;DHT22;8530;49.540;8.576;2023-03-23T02:03:52;14.90;50.40
16827;DHT22;8530;49.540;8.576;2023-03-23T02:06:19;14.90;49.80
16827;DHT22;8530;49.540;8.576;2023-03-23T02:08:48;14.80;49.80
16827;DHT22;8530;49.540;8.576;2023-03-23T02:11:17;14.90;49.90
16827;DHT22;8530;49.540;8.576;2023-03-23T02:13:46;14.80;49.80
16827;DHT22;8530;49.540;8.576;2023-03-23T02:16:19;14.80;49.90
16827;DHT22;8530;49.540;8.576;2023-03-23T02:18:58;14.80;49.90
16827;DHT22;8530;49.540;8.576;2023-03-23T02:24:48;14.80;50.00
16827;DHT22;8530;49.540;8.576;2023-03-23T02:27:28;14.80;50.00
16827;DHT22;8530;49.540;8.576;2023-03-23T02:30:14;14.80;50.10
16827;DHT22;8530;49.540;8.576;2023-03-23T02:33:14;14.80;50.10
16827;DHT22;8530;49.540;8.576;2023-03-23T02:35:45;14.70;50.10
16827;DHT22;8530;49.540;8.576;2023-03-23T02:38:15;14.70;50.10
16827;DHT22;8530;49.540;8.576;2023-03-23T02:44:12;14.70;50.20
16827;DHT22;8530;49.540;8.576;2023-03-23T02:46:40;14.70;50.30
16827;DHT22;8530;49.540;8.576;2023-03-23T02:49:11;14.70;50.30
16827;DHT22;8530;49.540;8.576;2023-03-23T02:51:39;14.70;50.30
16827;DHT22;8530;49.540;8.576;2023-03-23T02:54:07;14.70;50.40
16827;DHT22;8530;49.540;8.576;2023-03-23T02:56:35;14.70;50.40
16827;DHT22;8530;49.540;8.576;2023-03-23T02:59:02;14.70;50.40
16827;DHT22;8530;49.540;8.576;2023-03-23T03:01:57;14.70;50.40
16827;DHT22;8530;49.540;8.576;2023-03-23T03:04:28;14.70;50.50
16827;DHT22;8530;49.540;8.576;2023-03-23T03:10:00;14.70;50.50
16827;DHT22;8530;49.540;8.576;2023-03-23T03:12:33;14.70;50.50
16827;DHT22;8530;49.540;8.576;2023-03-23T03:15:10;14.70;50.50
16827;DHT22;8530;49.540;8.576;2023-03-23T03:17:42;14.70;50.60
16827;DHT22;8530;49.540;8.576;2023-03-23T03:20:14;14.70;50.60
16827;DHT22;8530;49.540;8.576;2023-03-23T03:22:43;14.70;50.60
16827;DHT22;8530;49.540;8.576;2023-03-23T03:25:12;14.70;50.70
16827;DHT22;8530;49.540;8.576;2023-03-23T03:27:41;14.70;50.70
16827;DHT22;8530;49.540;8.576;2023-03-23T03:30:12;14.60;50.70
16827;DHT22;8530;49.540;8.576;2023-03-23T03:32:44;14.60;50.80
16827;DHT22;8530;49.540;8.576;2023-03-23T03:35:15;14.60;50.80
16827;DHT22;8530;49.540;8.576;2023-03-23T03:37:43;14.60;50.80
16827;DHT22;8530;49.540;8.576;2023-03-23T03:40:13;14.60;50.90
16827;DHT22;8530;49.540;8.576;2023-03-23T03:42:42;14.60;51.00
16827;DHT22;8530;49.540;8.576;2023-03-23T03:45:12;14.60;51.00
16827;DHT22;8530;49.540;8.576;2023-03-23T03:47:41;14.60;51.10
16827;DHT22;8530;49.540;8.576;2023-03-23T03:50:08;14.60;51.10
16827;DHT22;8530;49.540;8.576;2023-03-23T03:52:37;14.60;51.20
16827;DHT22;8530;49.540;8.576;2023-03-23T03:55:06;14.60;51.30
16827;DHT22;8530;49.540;8.576;2023-03-23T03:57:33;14.60;51.30
16827;DHT22;8530;49.540;8.576;2023-03-23T04:00:00;14.60;51.40
16827;DHT22;8530;49.540;8.576;2023-03-23T04:02:37;14.60;51.40
16827;DHT22;8530;49.540;8.576;2023-03-23T04:05:04;14.60;51.50
16827;DHT22;8530;49.540;8.576;2023-03-23T04:07:31;14.60;51.50
16827;DHT22;8530;49.540;8.576;2023-03-23T04:09:59;14.60;51.50
16827;DHT22;8530;49.540;8.576;2023-03-23T04:12:26;14.60;51.60
16827;DHT22;8530;49.540;8.576;2023-03-23T04:14:52;14.60;51.60
16827;DHT22;8530;49.540;8.576;2023-03-23T04:17:19;14.60;51.70
16827;DHT22;8530;49.540;8.576;2023-03-23T04:19:46;14.60;51.80
16827;DHT22;8530;49.540;8.576;2023-03-23T04:22:12;14.50;51.80
16827;DHT22;8530;49.540;8.576;2023-03-23T04:24:41;14.50;51.90
16827;DHT22;8530;49.540;8.576;2023-03-23T04:27:09;14.50;52.10
16827;DHT22;8530;49.540;8.576;2023-03-23T04:29:38;14.50;52.80
16827;DHT22;8530;49.540;8.576;2023-03-23T04:32:05;14.50;52.30
16827;DHT22;8530;49.540;8.576;2023-03-23T04:34:32;14.50;52.50
16827;DHT22;8530;49.540;8.576;2023-03-23T04:37:00;14.50;52.60
16827;DHT22;8530;49.540;8.576;2023-03-23T04:39:27;14.50;52.80
16827;DHT22;8530;49.540;8.576;2023-03-23T04:41:54;14.50;52.90
16827;DHT22;8530;49.540;8.576;2023-03-23T04:44:22;14.60;53.20
16827;DHT22;8530;49.540;8.576;2023-03-23T04:46:49;14.60;53.30
16827;DHT22;8530;49.540;8.576;2023-03-23T04:49:16;14.60;53.30
16827;DHT22;8530;49.540;8.576;2023-03-23T04:51:46;14.70;53.50
16827;DHT22;8530;49.540;8.576;2023-03-23T04:54:14;14.70;53.60
16827;DHT22;8530;49.540;8.576;2023-03-23T04:56:40;14.70;53.70
16827;DHT22;8530;49.540;8.576;2023-03-23T04:59:07;14.70;53.90
16827;DHT22;8530;49.540;8.576;2023-03-23T05:01:35;14.70;54.00
16827;DHT22;8530;49.540;8.576;2023-03-23T05:04:04;14.70;54.30
16827;DHT22;8530;49.540;8.576;2023-03-23T05:06:30;14.60;54.30
16827;DHT22;8530;49.540;8.576;2023-03-23T05:08:57;14.70;54.60
16827;DHT22;8530;49.540;8.576;2023-03-23T05:11:24;14.60;54.80
16827;DHT22;8530;49.540;8.576;2023-03-23T05:13:51;14.60;55.00
16827;DHT22;8530;49.540;8.576;2023-03-23T05:16:18;14.60;55.20
16827;DHT22;8530;49.540;8.576;2023-03-23T05:18:46;14.50;55.30
16827;DHT22;8530;49.540;8.576;2023-03-23T05:21:13;14.50;55.50
16827;DHT22;8530;49.540;8.576;2023-03-23T05:23:40;14.50;55.60
16827;DHT22;8530;49.540;8.576;2023-03-23T05:26:07;14.50;55.80
16827;DHT22;8530;49.540;8.576;2023-03-23T05:28:34;14.50;56.00
16827;DHT22;8530;49.540;8.576;2023-03-23T05:31:01;14.50;56.10
16827;DHT22;8530;49.540;8.576;2023-03-23T05:33:28;14.40;56.20
16827;DHT22;8530;49.540;8.576;2023-03-23T05:35:56;14.50;56.50
16827;DHT22;8530;49.540;8.576;2023-03-23T05:38:23;14.40;56.60
16827;DHT22;8530;49.540;8.576;2023-03-23T05:40:49;14.40;56.80
16827;DHT22;8530;49.540;8.576;2023-03-23T05:43:17;14.40;56.90
16827;DHT22;8530;49.540;8.576;2023-03-23T05:45:44;14.40;57.10
16827;DHT22;8530;49.540;8.576;2023-03-23T05:48:11;14.40;57.20
16827;DHT22;8530;49.540;8.576;2023-03-23T05:50:37;14.40;57.30
16827;DHT22;8530;49.540;8.576;2023-03-23T05:53:06;14.40;57.50
16827;DHT22;8530;49.540;8.576;2023-03-23T05:55:33;14.40;57.60
16827;DHT22;8530;49.540;8.576;2023-03-23T05:57:59;14.40;57.80
16827;DHT22;8530;49.540;8.576;2023-03-23T06:00:26;14.40;58.00
16827;DHT22;8530;49.540;8.576;2023-03-23T06:02:56;14.40;58.10
16827;DHT22;8530;49.540;8.576;2023-03-23T06:05:22;14.50;58.40
16827;DHT22;8530;49.540;8.576;2023-03-23T06:07:51;14.50;58.50
16827;DHT22;8530;49.540;8.576;2023-03-23T06:10:19;14.50;58.60
16827;DHT22;8530;49.540;8.576;2023-03-23T06:12:46;14.50;58.70
16827;DHT22;8530;49.540;8.576;2023-03-23T06:15:13;14.60;58.90
16827;DHT22;8530;49.540;8.576;2023-03-23T06:17:40;14.60;58.90
16827;DHT22;8530;49.540;8.576;2023-03-23T06:20:08;14.60;59.00
16827;DHT22;8530;49.540;8.576;2023-03-23T06:22:36;14.70;59.10
16827;DHT22;8530;49.540;8.576;2023-03-23T06:25:03;14.70;59.60
16827;DHT22;8530;49.540;8.576;2023-03-23T06:27:32;14.80;59.20
16827;DHT22;8530;49.540;8.576;2023-03-23T06:29:59;14.80;59.20
16827;DHT22;8530;49.540;8.576;2023-03-23T06:32:27;14.80;59.20
16827;DHT22;8530;49.540;8.576;2023-03-23T06:34:55;14.80;59.30
16827;DHT22;8530;49.540;8.576;2023-03-23T06:37:23;14.80;59.30
16827;DHT22;8530;49.540;8.576;2023-03-23T06:39:49;14.90;59.40
16827;DHT22;8530;49.540;8.576;2023-03-23T06:42:17;14.90;59.40
16827;DHT22;8530;49.540;8.576;2023-03-23T06:44:45;14.90;59.40
16827;DHT22;8530;49.540;8.576;2023-03-23T06:47:12;15.00;59.60
16827;DHT22;8530;49.540;8.576;2023-03-23T06:49:39;15.00;60.00
16827;DHT22;8530;49.540;8.576;2023-03-23T06:52:06;15.00;59.60
16827;DHT22;8530;49.540;8.576;2023-03-23T06:54:32;15.00;59.60
16827;DHT22;8530;49.540;8.576;2023-03-23T06:56:59;15.00;59.70
16827;DHT22;8530;49.540;8.576;2023-03-23T06:59:26;15.00;59.70
16827;DHT22;8530;49.540;8.576;2023-03-23T07:01:54;15.10;59.80
16827;DHT22;8530;49.540;8.576;2023-03-23T07:04:21;15.10;59.90
16827;DHT22;8530;49.540;8.576;2023-03-23T07:06:49;15.10;59.90
16827;DHT22;8530;49.540;8.576;2023-03-23T07:09:16;15.20;60.00
16827;DHT22;8530;49.540;8.576;2023-03-23T07:11:42;15.20;60.00
16827;DHT22;8530;49.540;8.576;2023-03-23T07:14:09;15.20;60.00
16827;DHT22;8530;49.540;8.576;2023-03-23T07:16:36;15.20;60.00
16827;DHT22;8530;49.540;8.576;2023-03-23T07:19:04;15.20;60.00
16827;DHT22;8530;49.540;8.576;2023-03-23T07:21:31;15.20;60.10
16827;DHT22;8530;49.540;8.576;2023-03-23T07:23:58;15.20;60.10
16827;DHT22;8530;49.540;8.576;2023-03-23T07:26:24;15.20;60.20
16827;DHT22;8530;49.540;8.576;2023-03-23T07:28:51;15.20;60.10
16827;DHT22;8530;49.540;8.576;2023-03-23T07:31:18;15.30;60.20
16827;DHT22;8530;49.540;8.576;2023-03-23T07:33:44;15.30;60.20
16827;DHT22;8530;49.540;8.576;2023-03-23T07:36:13;15.30;60.10
16827;DHT22;8530;49.540;8.576;2023-03-23T07:38:39;15.30;60.10
16827;DHT22;8530;49.540;8.576;2023-03-23T07:41:06;15.40;60.20
16827;DHT22;8530;49.540;8.576;2023-03-23T07:43:33;15.40;60.20
16827;DHT22;8530;49.540;8.576;2023-03-23T07:46:00;15.50;60.30
16827;DHT22;8530;49.540;8.576;2023-03-23T07:48:26;15.50;60.80
16827;DHT22;8530;49.540;8.576;2023-03-23T07:50:53;15.50;60.10
16827;DHT22;8530;49.540;8.576;2023-03-23T07:53:21;15.50;60.10
16827;DHT22;8530;49.540;8.576;2023-03-23T07:55:49;15.40;60.10
16827;DHT22;8530;49.540;8.576;2023-03-23T07:58:16;15.40;60.20
16827;DHT22;8530;49.540;8.576;2023-03-23T08:00:44;15.40;60.40
16827;DHT22;8530;49.540;8.576;2023-03-23T08:03:12;15.40;60.50
16827;DHT22;8530;49.540;8.576;2023-03-23T08:05:38;15.40;60.60
16827;DHT22;8530;49.540;8.576;2023-03-23T08:08:07;15.40;60.80
16827;DHT22;8530;49.540;8.576;2023-03-23T08:10:36;15.40;60.80
16827;DHT22;8530;49.540;8.576;2023-03-23T08:13:03;15.40;61.00
16827;DHT22;8530;49.540;8.576;2023-03-23T08:15:31;15.40;61.00
16827;DHT22;8530;49.540;8.576;2023-03-23T08:18:03;15.40;61.10
16827;DHT22;8530;49.540;8.576;2023-03-23T08:20:30;15.40;61.30
16827;DHT22;8530;49.540;8.576;2023-03-23T08:22:58;15.30;61.30
16827;DHT22;8530;49.540;8.576;2023-03-23T08:25:26;15.30;61.50
16827;DHT22;8530;49.540;8.576;2023-03-23T08:27:54;15.30;61.60
16827;DHT22;8530;49.540;8.576;2023-03-23T08:30:21;15.30;61.80
16827;DHT22;8530;49.540;8.576;2023-03-23T08:32:50;15.30;61.90
16827;DHT22;8530;49.540;8.576;2023-03-23T08:35:18;15.30;62.00
16827;DHT22;8530;49.540;8.576;2023-03-23T08:37:45;15.30;62.20
16827;DHT22;8530;49.540;8.576;2023-03-23T08:40:17;15.30;62.30
16827;DHT22;8530;49.540;8.576;2023-03-23T08:42:45;15.40;62.50
16827;DHT22;8530;49.540;8.576;2023-03-23T08:45:16;15.40;62.60
16827;DHT22;8530;49.540;8.576;2023-03-23T08:47:43;15.40;62.70
16827;DHT22;8530;49.540;8.576;2023-03-23T08:50:15;15.40;62.80
16827;DHT22;8530;49.540;8.576;2023-03-23T08:52:42;15.40;62.90
16827;DHT22;8530;49.540;8.576;2023-03-23T08:55:10;15.40;63.00
16827;DHT22;8530;49.540;8.576;2023-03-23T08:57:37;15.40;63.20
16827;DHT22;8530;49.540;8.576;2023-03-23T09:00:05;15.40;63.40
16827;DHT22;8530;49.540;8.576;2023-03-23T09:02:42;15.40;63.70
16827;DHT22;8530;49.540;8.576;2023-03-23T09:05:10;15.40;64.00
16827;DHT22;8530;49.540;8.576;2023-03-23T09:07:37;15.40;64.40
16827;DHT22;8530;49.540;8.576;2023-03-23T09:10:05;15.40;64.60
16827;DHT22;8530;49.540;8.576;2023-03-23T09:12:32;15.40;64.90
16827;DHT22;8530;49.540;8.576;2023-03-23T09:14:58;15.50;65.20
16827;DHT22;8530;49.540;8.576;2023-03-23T09:17:28;15.50;65.50
16827;DHT22;8530;49.540;8.576;2023-03-23T09:19:56;15.60;65.70
16827;DHT22;8530;49.540;8.576;2023-03-23T09:22:24;15.70;66.00
16827;DHT22;8530;49.540;8.576;2023-03-23T09:24:50;15.80;66.10
16827;DHT22;8530;49.540;8.576;2023-03-23T09:27:17;15.80;66.20
16827;DHT22;8530;49.540;8.576;2023-03-23T09:29:44;15.90;66.40
16827;DHT22;8530;49.540;8.576;2023-03-23T09:32:14;16.00;66.50
16827;DHT22;8530;49.540;8.576;2023-03-23T09:34:41;16.20;66.70
16827;DHT22;8530;49.540;8.576;2023-03-23T09:37:09;16.40;66.80
16827;DHT22;8530;49.540;8.576;2023-03-23T09:39:38;16.50;66.60
16827;DHT22;8530;49.540;8.576;2023-03-23T09:42:35;16.70;66.30
16827;DHT22;8530;49.540;8.576;2023-03-23T09:45:13;16.80;65.70
16827;DHT22;8530;49.540;8.576;2023-03-23T09:47:55;17.10;65.40
16827;DHT22;8530;49.540;8.576;2023-03-23T09:50:27;17.20;65.10
16827;DHT22;8530;49.540;8.576;2023-03-23T09:53:02;17.40;64.70
16827;DHT22;8530;49.540;8.576;2023-03-23T09:55:32;17.40;63.90
16827;DHT22;8530;49.540;8.576;2023-03-23T09:58:02;17.40;63.30
16827;DHT22;8530;49.540;8.576;2023-03-23T10:00:37;17.30;62.70
16827;DHT22;8530;49.540;8.576;2023-03-23T10:03:06;17.30;62.70
16827;DHT22;8530;49.540;8.576;2023-03-23T10:05:40;17.30;62.70
16827;DHT22;8530;49.540;8.576;2023-03-23T10:08:11;17.40;63.20
16827;DHT22;8530;49.540;8.576;2023-03-23T10:10:48;17.60;62.70
16827;DHT22;8530;49.540;8.576;2023-03-23T10:13:24;17.80;62.60
16827;DHT22;8530;49.540;8.576;2023-03-23T10:15:52;18.00;62.40
16827;DHT22;8530;49.540;8.576;2023-03-23T10:18:25;18.00;61.90
16827;DHT22;8530;49.540;8.576;2023-03-23T10:20:56;18.00;61.60
16827;DHT22;8530;49.540;8.576;2023-03-23T10:23:44;18.00;61.20
16827;DHT22;8530;49.540;8.576;2023-03-23T10:26:21;17.90;60.90
16827;DHT22;8530;49.540;8.576;2023-03-23T10:28:52;18.00;60.90
16827;DHT22;8530;49.540;8.576;2023-03-23T10:31:22;18.00;60.60
16827;DHT22;8530;49.540;8.576;2023-03-23T10:33:52;18.00;60.50
16827;DHT22;8530;49.540;8.576;2023-03-23T10:36:24;18.00;60.30
16827;DHT22;8530;49.540;8.576;2023-03-23T10:38:58;18.10;60.20
16827;DHT22;8530;49.540;8.576;2023-03-23T10:41:25;18.20;60.10
16827;DHT22;8530;49.540;8.576;2023-03-23T10:43:52;18.30;60.00
16827;DHT22;8530;49.540;8.576;2023-03-23T10:46:28;18.50;60.00
16827;DHT22;8530;49.540;8.576;2023-03-23T10:48:58;18.70;59.80
16827;DHT22;8530;49.540;8.576;2023-03-23T10:51:31;19.10;59.70
16827;DHT22;8530;49.540;8.576;2023-03-23T10:54:02;19.40;59.40
16827;DHT22;8530;49.540;8.576;2023-03-23T10:56:35;19.80;59.00
16827;DHT22;8530;49.540;8.576;2023-03-23T10:59:12;20.10;58.50
16827;DHT22;8530;49.540;8.576;2023-03-23T11:01:43;20.40;57.80
16827;DHT22;8530;49.540;8.576;2023-03-23T11:04:12;20.60;57.20
16827;DHT22;8530;49.540;8.576;2023-03-23T11:06:44;20.60;56.40
16827;DHT22;8530;49.540;8.576;2023-03-23T11:09:14;20.50;55.50
16827;DHT22;8530;49.540;8.576;2023-03-23T11:11:47;20.20;54.70
16827;DHT22;8530;49.540;8.576;2023-03-23T11:14:17;19.90;54.30
16827;DHT22;8530;49.540;8.576;2023-03-23T11:16:49;19.50;54.10
16827;DHT22;8530;49.540;8.576;2023-03-23T11:19:22;19.10;53.90
16827;DHT22;8530;49.540;8.576;2023-03-23T11:21:51;18.80;53.90
16827;DHT22;8530;49.540;8.576;2023-03-23T11:24:21;18.40;53.90
16827;DHT22;8530;49.540;8.576;2023-03-23T11:26:49;18.10;54.10
16827;DHT22;8530;49.540;8.576;2023-03-23T11:29:18;17.80;54.40
16827;DHT22;8530;49.540;8.576;2023-03-23T11:31:48;17.60;54.90
16827;DHT22;8530;49.540;8.576;2023-03-23T11:34:20;17.30;55.10
16827;DHT22;8530;49.540;8.576;2023-03-23T11:36:49;17.20;55.50
16827;DHT22;8530;49.540;8.576;2023-03-23T11:39:22;17.10;55.90
16827;DHT22;8530;49.540;8.576;2023-03-23T11:41:50;17.00;56.30
16827;DHT22;8530;49.540;8.576;2023-03-23T11:44:16;17.00;56.60
16827;DHT22;8530;49.540;8.576;2023-03-23T11:46:57;17.00;56.90
16827;DHT22;8530;49.540;8.576;2023-03-23T11:49:44;17.00;57.20
16827;DHT22;8530;49.540;8.576;2023-03-23T11:52:16;17.10;57.40
16827;DHT22;8530;49.540;8.576;2023-03-23T11:54:52;17.10;57.60
16827;DHT22;8530;49.540;8.576;2023-03-23T11:57:21;17.00;57.80
16827;DHT22;8530;49.540;8.576;2023-03-23T11:59:47;17.00;58.00
16827;DHT22;8530;49.540;8.576;2023-03-23T12:02:36;16.90;58.20
16827;DHT22;8530;49.540;8.576;2023-03-23T12:05:27;16.90;58.60
16827;DHT22;8530;49.540;8.576;2023-03-23T12:08:06;16.90;58.70
16827;DHT22;8530;49.540;8.576;2023-03-23T12:10:42;16.80;58.80
16827;DHT22;8530;49.540;8.576;2023-03-23T12:13:21;16.80;59.00
16827;DHT22;8530;49.540;8.576;2023-03-23T12:15:54;16.80;59.70
16827;DHT22;8530;49.540;8.576;2023-03-23T12:18:31;16.70;59.20
16827;DHT22;8530;49.540;8.576;2023-03-23T12:21:05;16.60;59.30
16827;DHT22;8530;49.540;8.576;2023-03-23T12:23:44;16.60;59.50
16827;DHT22;8530;49.540;8.576;2023-03-23T12:26:17;16.60;59.70
16827;DHT22;8530;49.540;8.576;2023-03-23T12:31:40;16.60;60.00
16827;DHT22;8530;49.540;8.576;2023-03-23T12:34:18;16.60;60.00
16827;DHT22;8530;49.540;8.576;2023-03-23T12:37:04;16.60;60.20
16827;DHT22;8530;49.540;8.576;2023-03-23T12:39:53;16.60;60.30
16827;DHT22;8530;49.540;8.576;2023-03-23T12:42:33;16.70;60.50
16827;DHT22;8530;49.540;8.576;2023-03-23T12:45:11;16.70;60.60
16827;DHT22;8530;49.540;8.576;2023-03-23T12:47:46;16.80;60.70
16827;DHT22;8530;49.540;8.576;2023-03-23T12:50:17;16.80;60.60
16827;DHT22;8530;49.540;8.576;2023-03-23T12:52:50;16.80;60.60
16827;DHT22;8530;49.540;8.576;2023-03-23T12:55:23;16.80;60.60
16827;DHT22;8530;49.540;8.576;2023-03-23T12:57:56;16.90;60.80
16827;DHT22;8530;49.540;8.576;2023-03-23T13:00:28;17.00;61.10
16827;DHT22;8530;49.540;8.576;2023-03-23T13:03:00;17.30;61.20
16827;DHT22;8530;49.540;8.576;2023-03-23T13:05:58;17.80;61.40
16827;DHT22;8530;49.540;8.576;2023-03-23T13:08:31;18.20;61.00
16827;DHT22;8530;49.540;8.576;2023-03-23T13:11:03;18.30;60.60
16827;DHT22;8530;49.540;8.576;2023-03-23T13:13:45;18.30;60.20
16827;DHT22;8530;49.540;8.576;2023-03-23T13:16:20;18.20;59.90
16827;DHT22;8530;49.540;8.576;2023-03-23T13:22:02;17.90;59.70
16827;DHT22;8530;49.540;8.576;2023-03-23T13:24:34;17.80;59.60
16827;DHT22;8530;49.540;8.576;2023-03-23T13:27:02;17.70;59.70
16827;DHT22;8530;49.540;8.576;2023-03-23T13:29:33;17.60;59.90
16827;DHT22;8530;49.540;8.576;2023-03-23T13:32:10;17.50;59.90
16827;DHT22;8530;49.540;8.576;2023-03-23T13:34:39;17.40;59.90
16827;DHT22;8530;49.540;8.576;2023-03-23T13:37:19;17.30;59.90
16827;DHT22;8530;49.540;8.576;2023-03-23T13:39:50;17.30;60.00
16827;DHT22;8530;49.540;8.576;2023-03-23T13:42:20;17.20;60.10
16827;DHT22;8530;49.540;8.576;2023-03-23T13:45:05;17.10;60.10
16827;DHT22;8530;49.540;8.576;2023-03-23T13:47:37;17.00;60.30
16827;DHT22;8530;49.540;8.576;2023-03-23T13:50:11;17.00;60.40
16827;DHT22;8530;49.540;8.576;2023-03-23T13:52:49;16.90;60.60
16827;DHT22;8530;49.540;8.576;2023-03-23T13:55:29;16.90;60.70
16827;DHT22;8530;49.540;8.576;2023-03-23T13:57:57;16.90;60.80
16827;DHT22;8530;49.540;8.576;2023-03-23T14:00:36;16.90;60.80
16827;DHT22;8530;49.540;8.576;2023-03-23T14:03:05;16.90;60.80
16827;DHT22;8530;49.540;8.576;2023-03-23T14:05:38;16.90;60.80
16827;DHT22;8530;49.540;8.576;2023-03-23T14:08:13;16.90;60.80
16827;DHT22;8530;49.540;8.576;2023-03-23T14:10:43;16.90;60.80
16827;DHT22;8530;49.540;8.576;2023-03-23T14:13:23;16.90;60.80
16827;DHT22;8530;49.540;8.576;2023-03-23T14:16:00;16.90;60.80
16827;DHT22;8530;49.540;8.576;2023-03-23T14:18:31;17.00;60.80
16827;DHT22;8530;49.540;8.576;2023-03-23T14:20:59;17.00;60.60
16827;DHT22;8530;49.540;8.576;2023-03-23T14:23:26;17.10;60.50
16827;DHT22;8530;49.540;8.576;2023-03-23T14:25:59;17.20;60.50
16827;DHT22;8530;49.540;8.576;2023-03-23T14:28:36;17.40;60.40
16827;DHT22;8530;49.540;8.576;2023-03-23T14:31:05;17.50;60.30
16827;DHT22;8530;49.540;8.576;2023-03-23T14:33:38;17.60;60.20
16827;DHT22;8530;49.540;8.576;2023-03-23T14:36:07;17.60;60.00
16827;DHT22;8530;49.540;8.576;2023-03-23T14:38:34;17.60;60.00
16827;DHT22;8530;49.540;8.576;2023-03-23T14:41:03;17.60;60.00
16827;DHT22;8530;49.540;8.576;2023-03-23T14:43:30;17.60;59.90
16827;DHT22;8530;49.540;8.576;2023-03-23T14:46:01;17.50;59.70
16827;DHT22;8530;49.540;8.576;2023-03-23T14:48:30;17.50;59.70
16827;DHT22;8530;49.540;8.576;2023-03-23T14:50:58;17.40;59.60
16827;DHT22;8530;49.540;8.576;2023-03-23T14:53:32;17.40;59.60
16827;DHT22;8530;49.540;8.576;2023-03-23T14:56:01;17.30;59.60
16827;DHT22;8530;49.540;8.576;2023-03-23T14:58:29;17.30;59.70
16827;DHT22;8530;49.540;8.576;2023-03-23T15:00:59;17.30;59.80
16827;DHT22;8530;49.540;8.576;2023-03-23T15:03:27;17.30;59.90
16827;DHT22;8530;49.540;8.576;2023-03-23T15:05:58;17.30;59.80
16827;DHT22;8530;49.540;8.576;2023-03-23T15:08:29;17.30;59.70
16827;DHT22;8530;49.540;8.576;2023-03-23T15:11:06;17.30;59.70
16827;DHT22;8530;49.540;8.576;2023-03-23T15:13:34;17.20;59.60
16827;DHT22;8530;49.540;8.576;2023-03-23T15:16:03;17.20;59.70
16827;DHT22;8530;49.540;8.576;2023-03-23T15:18:32;17.20;59.70
16827;DHT22;8530;49.540;8.576;2023-03-23T15:21:10;17.20;59.80
16827;DHT22;8530;49.540;8.576;2023-03-23T15:23:42;17.10;59.80
16827;DHT22;8530;49.540;8.576;2023-03-23T15:26:23;17.00;59.80
16827;DHT22;8530;49.540;8.576;2023-03-23T15:29:12;17.00;60.00
16827;DHT22;8530;49.540;8.576;2023-03-23T15:31:42;17.10;60.10
16827;DHT22;8530;49.540;8.576;2023-03-23T15:34:15;17.10;60.20
16827;DHT22;8530;49.540;8.576;2023-03-23T15:36:43;17.10;60.20
16827;DHT22;8530;49.540;8.576;2023-03-23T15:39:12;17.10;60.40
16827;DHT22;8530;49.540;8.576;2023-03-23T15:41:46;17.10;60.40
16827;DHT22;8530;49.540;8.576;2023-03-23T15:44:28;17.10;60.50
16827;DHT22;8530;49.540;8.576;2023-03-23T15:47:12;17.10;60.50
16827;DHT22;8530;49.540;8.576;2023-03-23T15:49:40;17.20;60.70
16827;DHT22;8530;49.540;8.576;2023-03-23T15:52:10;17.20;60.60
16827;DHT22;8530;49.540;8.576;2023-03-23T15:54:37;17.20;60.60
16827;DHT22;8530;49.540;8.576;2023-03-23T15:57:04;17.20;60.50
16827;DHT22;8530;49.540;8.576;2023-03-23T15:59:31;17.20;60.60
16827;DHT22;8530;49.540;8.576;2023-03-23T16:01:58;17.20;60.70
16827;DHT22;8530;49.540;8.576;2023-03-23T16:04:24;17.20;60.70
16827;DHT22;8530;49.540;8.576;2023-03-23T16:06:55;17.20;60.70
16827;DHT22;8530;49.540;8.576;2023-03-23T16:09:24;17.20;60.70
16827;DHT22;8530;49.540;8.576;2023-03-23T16:11:51;17.10;60.80
16827;DHT22;8530;49.540;8.576;2023-03-23T16:14:18;17.10;60.80
16827;DHT22;8530;49.540;8.576;2023-03-23T16:16:47;17.10;61.00
16827;DHT22;8530;49.540;8.576;2023-03-23T16:19:15;17.00;61.00